Republica Dominicana

Metar

SADR31 MDSD 170600Z
METAR MDPC 170600Z 05005KT 8000 -TSRA FEW014CB SCT016 SCT070 23/22
Q1018 CB/NE/E/SE=
METAR MDST 170600Z 13011KT 9999 BKN016 25/23 Q1018=
METAR MDSD 170600Z 00000KT 9999 FEW016CB SCT018 25/23 Q1017 CB/NE=




Tamaño letra

Contraste

Otros